createdAt,value
2019-04-30T00:01:42.510Z,7.92
2019-04-30T00:04:11.774Z,7.90
2019-04-30T00:06:39.579Z,7.86
2019-04-30T00:09:09.636Z,7.83
2019-04-30T00:11:36.292Z,7.82
2019-04-30T00:14:05.544Z,7.79
2019-04-30T00:16:36.287Z,7.77
2019-04-30T00:19:02.273Z,7.76
2019-04-30T00:21:29.332Z,7.74
2019-04-30T00:24:00.825Z,7.41
2019-04-30T00:26:26.026Z,7.69
2019-04-30T00:28:55.310Z,7.65
2019-04-30T00:31:23.930Z,7.62
2019-04-30T00:33:52.728Z,7.59
2019-04-30T00:36:21.081Z,7.56
2019-04-30T00:38:47.793Z,7.53
2019-04-30T00:41:15.789Z,7.50
2019-04-30T00:43:49.271Z,7.46
2019-04-30T00:46:17.340Z,7.44
2019-04-30T00:48:43.166Z,7.41
2019-04-30T00:51:18.144Z,7.38
2019-04-30T00:53:43.899Z,7.35
2019-04-30T00:56:09.946Z,7.31
2019-04-30T00:58:37.714Z,7.29
2019-04-30T01:01:17.074Z,7.25
2019-04-30T01:03:52.045Z,7.23
2019-04-30T01:06:24.638Z,7.20
2019-04-30T01:08:49.585Z,7.18
2019-04-30T01:11:16.894Z,7.15
2019-04-30T01:13:50.222Z,7.12
2019-04-30T01:16:13.299Z,7.09
2019-04-30T01:18:40.760Z,7.07
2019-04-30T01:21:11.241Z,7.06
2019-04-30T01:23:43.076Z,7.03
2019-04-30T01:26:08.770Z,6.99
2019-04-30T01:28:38.504Z,7.01
2019-04-30T01:31:06.052Z,6.99
2019-04-30T01:33:34.528Z,6.99
2019-04-30T01:36:04.042Z,6.98
2019-04-30T01:38:32.827Z,6.97
2019-04-30T01:41:00.376Z,6.96
2019-04-30T01:43:31.755Z,6.95
2019-04-30T01:46:03.252Z,6.91
2019-04-30T01:48:29.243Z,6.87
2019-04-30T01:50:58.675Z,6.84
2019-04-30T01:53:28.475Z,6.79
2019-04-30T01:56:16.095Z,6.76
2019-04-30T01:58:51.162Z,6.73
2019-04-30T02:01:20.666Z,6.68
2019-04-30T02:03:48.760Z,6.66
2019-04-30T02:06:16.257Z,6.65
2019-04-30T02:08:43.854Z,6.60
2019-04-30T02:11:11.531Z,6.57
2019-04-30T02:13:39.445Z,6.52
2019-04-30T02:16:08.552Z,6.47
2019-04-30T02:18:36.804Z,6.43
2019-04-30T02:21:04.327Z,6.37
2019-04-30T02:23:32.016Z,6.30
2019-04-30T02:25:59.789Z,6.24
2019-04-30T02:28:29.052Z,6.20
2019-04-30T02:30:59.925Z,6.14
2019-04-30T02:33:26.829Z,6.09
2019-04-30T02:35:56.317Z,6.08
2019-04-30T02:38:30.038Z,6.08
2019-04-30T02:40:59.611Z,6.08
2019-04-30T02:43:30.030Z,6.06
2019-04-30T02:45:59.865Z,6.06
2019-04-30T02:48:29.561Z,6.04
2019-04-30T02:51:00.036Z,6.01
2019-04-30T02:53:50.658Z,4.30
2019-04-30T02:56:20.266Z,5.94
2019-04-30T02:58:50.612Z,5.89
2019-04-30T03:01:20.234Z,5.85
2019-04-30T03:03:49.492Z,5.79
2019-04-30T03:06:15.939Z,5.75
2019-04-30T03:08:43.465Z,5.73
2019-04-30T03:11:11.148Z,5.69
2019-04-30T03:13:42.554Z,5.65
2019-04-30T03:16:09.979Z,5.61
2019-04-30T03:18:54.306Z,5.56
2019-04-30T03:21:31.913Z,5.52
2019-04-30T03:24:00.646Z,5.45
2019-04-30T03:26:29.625Z,5.39
2019-04-30T03:28:56.263Z,5.35
2019-04-30T03:31:23.146Z,5.31
2019-04-30T03:33:52.417Z,5.24
2019-04-30T03:36:21.662Z,5.19
2019-04-30T03:38:50.113Z,5.15
2019-04-30T03:41:19.926Z,5.13
2019-04-30T03:43:46.634Z,5.10
2019-04-30T03:46:13.599Z,5.04
2019-04-30T03:48:41.595Z,5.01
2019-04-30T03:51:10.624Z,4.95
2019-04-30T03:53:39.664Z,4.92
2019-04-30T03:56:09.502Z,4.90
2019-04-30T03:58:39.617Z,4.86
2019-04-30T04:01:24.340Z,4.82
2019-04-30T04:04:10.126Z,4.77
2019-04-30T04:06:49.285Z,4.72
2019-04-30T04:09:29.803Z,4.67
2019-04-30T04:11:59.958Z,4.66
2019-04-30T04:14:29.651Z,4.64
2019-04-30T04:16:56.513Z,4.61
2019-04-30T04:19:24.168Z,4.58
2019-04-30T04:21:51.266Z,4.55
2019-04-30T04:24:20.495Z,4.54
2019-04-30T04:26:50.259Z,4.51
2019-04-30T04:29:19.641Z,4.49
2019-04-30T04:31:49.770Z,4.48
2019-04-30T04:34:19.426Z,4.48
2019-04-30T04:36:45.476Z,4.47
2019-04-30T04:39:13.446Z,3.85
2019-04-30T04:41:43.950Z,4.49
2019-04-30T04:44:13.056Z,4.49
2019-04-30T04:46:40.347Z,4.48
2019-04-30T04:49:09.004Z,4.50
2019-04-30T04:51:39.403Z,4.54
2019-04-30T04:54:05.318Z,4.56
2019-04-30T04:56:32.520Z,4.58
2019-04-30T04:59:00.286Z,4.61
2019-04-30T05:01:28.888Z,4.64
2019-04-30T05:03:59.212Z,4.70
2019-04-30T05:06:26.461Z,4.74
2019-04-30T05:08:53.407Z,4.77
2019-04-30T05:11:20.209Z,4.80
2019-04-30T05:13:48.933Z,4.86
2019-04-30T05:16:16.385Z,4.89
2019-04-30T05:18:43.229Z,4.94
2019-04-30T05:21:10.454Z,4.99
2019-04-30T05:23:39.647Z,5.02
2019-04-30T05:26:08.435Z,5.05
2019-04-30T05:28:35.952Z,5.10
2019-04-30T05:31:02.942Z,5.15
2019-04-30T05:33:29.946Z,5.16
2019-04-30T05:35:59.260Z,5.19
2019-04-30T05:38:25.935Z,5.21
2019-04-30T05:40:52.890Z,5.24
2019-04-30T05:43:20.066Z,5.28
2019-04-30T05:45:48.989Z,5.31
2019-04-30T05:48:15.808Z,5.33
2019-04-30T05:50:43.074Z,5.37
2019-04-30T05:53:09.828Z,5.38
2019-04-30T05:55:39.540Z,5.43
2019-04-30T05:58:09.186Z,5.47
2019-04-30T06:00:35.577Z,5.49
2019-04-30T06:03:02.423Z,5.51
2019-04-30T06:05:29.629Z,5.50
2019-04-30T06:07:56.694Z,5.54
2019-04-30T06:10:25.365Z,5.55
2019-04-30T06:12:54.070Z,5.58
2019-04-30T06:15:32.163Z,5.61
2019-04-30T06:18:04.022Z,5.62
2019-04-30T06:20:28.773Z,5.63
2019-04-30T06:22:56.559Z,5.65
2019-04-30T06:25:31.596Z,4.87
2019-04-30T06:27:52.172Z,5.70
2019-04-30T06:30:19.877Z,5.71
2019-04-30T06:32:46.970Z,5.73
2019-04-30T06:35:13.930Z,5.75
2019-04-30T06:37:41.165Z,5.78
2019-04-30T06:40:09.404Z,5.80
2019-04-30T06:42:39.237Z,5.80
2019-04-30T06:45:08.832Z,5.87
2019-04-30T06:47:36.198Z,5.87
2019-04-30T06:50:05.196Z,5.92
2019-04-30T06:52:32.040Z,5.95
2019-04-30T06:54:59.716Z,4.45
2019-04-30T06:57:26.631Z,6.00
2019-04-30T06:59:53.506Z,6.05
2019-04-30T07:02:20.655Z,6.09
2019-04-30T07:04:49.109Z,6.15
2019-04-30T07:07:19.287Z,6.23
2019-04-30T07:09:58.660Z,6.34
2019-04-30T07:12:30.621Z,6.67
2019-04-30T07:14:59.224Z,6.92
2019-04-30T07:17:26.126Z,7.11
2019-04-30T07:19:56.777Z,7.31
2019-04-30T07:22:36.542Z,7.41
2019-04-30T07:24:50.922Z,7.65
2019-04-30T07:27:23.699Z,7.80
2019-04-30T07:29:46.742Z,8.00
2019-04-30T07:32:14.171Z,8.14
2019-04-30T07:34:41.719Z,8.24
2019-04-30T07:37:17.049Z,8.30
2019-04-30T07:39:39.053Z,8.47
2019-04-30T07:42:06.201Z,8.69
2019-04-30T07:44:36.440Z,8.79
2019-04-30T07:47:02.067Z,8.95
2019-04-30T07:49:46.152Z,9.12
2019-04-30T07:52:00.942Z,9.33
2019-04-30T07:54:26.791Z,9.32
2019-04-30T07:56:54.082Z,9.39
2019-04-30T07:59:20.938Z,9.64
2019-04-30T08:02:03.741Z,9.96
2019-04-30T08:04:29.330Z,10.16
2019-04-30T08:06:59.695Z,10.12
2019-04-30T08:09:35.675Z,10.18
2019-04-30T08:11:55.689Z,10.31
2019-04-30T08:14:24.564Z,10.37
2019-04-30T08:16:51.604Z,10.45
2019-04-30T08:19:19.139Z,10.38
2019-04-30T08:21:46.278Z,10.45
2019-04-30T08:24:13.897Z,10.55
2019-04-30T08:26:41.351Z,10.53
2019-04-30T08:29:09.577Z,10.56
2019-04-30T08:31:36.784Z,10.60
2019-04-30T08:34:03.873Z,10.69
2019-04-30T08:36:33.134Z,10.75
2019-04-30T08:39:00.254Z,10.76
2019-04-30T08:41:29.269Z,10.89
2019-04-30T08:43:56.668Z,10.95
2019-04-30T08:46:23.517Z,11.05
2019-04-30T08:48:53.729Z,11.17
2019-04-30T08:51:20.910Z,11.32
2019-04-30T08:53:48.627Z,11.40
2019-04-30T08:56:15.639Z,11.34
2019-04-30T08:58:43.039Z,11.33
2019-04-30T09:01:09.986Z,11.51
2019-04-30T09:03:36.711Z,11.80
2019-04-30T09:06:05.720Z,12.03
2019-04-30T09:08:32.919Z,12.01
2019-04-30T09:10:59.860Z,12.00
2019-04-30T09:13:28.655Z,12.09
2019-04-30T09:15:55.774Z,12.19
2019-04-30T09:18:22.634Z,12.18
2019-04-30T09:20:49.885Z,12.22
2019-04-30T09:23:18.662Z,12.23
2019-04-30T09:25:46.250Z,12.32
2019-04-30T09:28:13.226Z,12.51
2019-04-30T09:30:40.365Z,12.60
2019-04-30T09:33:10.894Z,12.73
2019-04-30T09:35:36.156Z,12.83
2019-04-30T09:38:03.712Z,12.92
2019-04-30T09:40:32.490Z,12.96
2019-04-30T09:43:00.452Z,13.09
2019-04-30T09:45:28.579Z,13.33
2019-04-30T09:47:56.011Z,12.07
2019-04-30T09:50:22.944Z,13.51
2019-04-30T09:52:50.065Z,13.62
2019-04-30T09:55:19.239Z,13.74
2019-04-30T09:57:46.313Z,13.94
2019-04-30T10:00:13.255Z,14.12
2019-04-30T10:02:40.089Z,14.18
2019-04-30T10:05:09.417Z,14.30
2019-04-30T10:07:36.865Z,14.50
2019-04-30T10:10:09.495Z,14.57
2019-04-30T10:12:36.985Z,14.89
2019-04-30T10:15:04.642Z,14.94
2019-04-30T10:17:36.705Z,14.89
2019-04-30T10:20:06.892Z,14.83
2019-04-30T10:22:33.661Z,14.82
2019-04-30T10:25:00.486Z,15.17
2019-04-30T10:27:29.375Z,15.24
2019-04-30T10:29:56.306Z,15.50
2019-04-30T10:32:23.478Z,15.38
2019-04-30T10:34:51.203Z,15.45
2019-04-30T10:37:18.926Z,15.54
2019-04-30T10:39:46.028Z,15.52
2019-04-30T10:42:12.979Z,15.66
2019-04-30T10:44:40.273Z,15.82
2019-04-30T10:47:09.244Z,15.95
2019-04-30T10:49:35.788Z,16.17
2019-04-30T10:52:03.048Z,16.36
2019-04-30T10:54:30.254Z,16.79
2019-04-30T10:56:59.116Z,16.85
2019-04-30T10:59:26.054Z,15.72
2019-04-30T11:01:52.894Z,17.08
2019-04-30T11:04:20.297Z,17.34
2019-04-30T11:06:47.279Z,17.39
2019-04-30T11:09:14.313Z,17.18
2019-04-30T11:11:41.547Z,17.54
2019-04-30T11:14:08.447Z,18.08
2019-04-30T11:16:35.292Z,18.39
2019-04-30T11:19:02.710Z,18.51
2019-04-30T11:21:30.007Z,18.48
2019-04-30T11:23:59.216Z,18.72
2019-04-30T11:26:26.380Z,18.66
2019-04-30T11:28:54.142Z,18.37
2019-04-30T11:31:25.995Z,18.23
2019-04-30T11:33:55.350Z,18.27
2019-04-30T11:36:22.997Z,18.33
2019-04-30T11:38:50.430Z,18.38
2019-04-30T11:41:29.812Z,18.52
2019-04-30T11:43:46.054Z,18.65
2019-04-30T11:46:25.454Z,18.42
2019-04-30T11:48:52.827Z,18.27
2019-04-30T11:51:19.940Z,17.96
2019-04-30T11:53:48.857Z,17.94
2019-04-30T11:56:15.554Z,17.90
2019-04-30T11:58:42.815Z,17.96
2019-04-30T12:01:11.482Z,18.25
2019-04-30T12:03:39.425Z,18.36
2019-04-30T12:06:08.531Z,18.50
2019-04-30T12:08:54.310Z,17.88
2019-04-30T12:11:24.208Z,18.50
2019-04-30T12:13:51.062Z,18.68
2019-04-30T12:16:18.640Z,18.71
2019-04-30T12:18:45.624Z,18.75
2019-04-30T12:21:12.782Z,18.59
2019-04-30T12:23:39.681Z,18.62
2019-04-30T12:26:06.707Z,18.66
2019-04-30T12:28:33.660Z,18.75
2019-04-30T12:31:01.257Z,18.77
2019-04-30T12:33:28.179Z,18.61
2019-04-30T12:35:55.088Z,18.40
2019-04-30T12:38:21.943Z,18.29
2019-04-30T12:40:49.114Z,18.27
2019-04-30T12:43:16.298Z,18.46
2019-04-30T12:45:43.310Z,18.73
2019-04-30T12:48:12.000Z,18.94
2019-04-30T12:50:40.972Z,18.87
2019-04-30T12:53:09.845Z,18.91
2019-04-30T12:55:39.174Z,17.81
2019-04-30T12:58:06.476Z,18.72
2019-04-30T13:00:33.790Z,18.55
2019-04-30T13:03:00.738Z,18.48
2019-04-30T13:05:29.515Z,18.62
2019-04-30T13:07:59.014Z,18.91
2019-04-30T13:10:26.122Z,19.02
2019-04-30T13:12:53.986Z,18.01
2019-04-30T13:15:21.636Z,19.01
2019-04-30T13:17:50.090Z,19.12
2019-04-30T13:20:20.959Z,19.33
2019-04-30T13:22:46.151Z,18.17
2019-04-30T13:25:13.444Z,19.19
2019-04-30T13:27:48.335Z,18.97
2019-04-30T13:30:30.029Z,18.84
2019-04-30T13:33:05.073Z,18.67
2019-04-30T13:35:32.261Z,18.72
2019-04-30T13:38:03.590Z,18.86
2019-04-30T13:40:50.272Z,19.04
2019-04-30T13:43:19.030Z,19.41
2019-04-30T13:45:45.937Z,19.76
2019-04-30T13:48:12.919Z,20.01
2019-04-30T13:50:40.054Z,20.32
2019-04-30T13:53:08.910Z,20.62
2019-04-30T13:55:44.472Z,20.67
2019-04-30T13:58:05.090Z,20.67
2019-04-30T14:00:32.169Z,20.73
2019-04-30T14:03:06.793Z,20.85
2019-04-30T14:05:33.723Z,20.98
2019-04-30T14:08:02.770Z,19.89
2019-04-30T14:10:31.524Z,20.62
2019-04-30T14:13:00.241Z,20.25
2019-04-30T14:15:28.711Z,20.08
2019-04-30T14:17:56.386Z,20.13
2019-04-30T14:20:23.342Z,20.22
2019-04-30T14:22:50.410Z,20.21
2019-04-30T14:25:17.750Z,20.30
2019-04-30T14:27:52.216Z,20.28
2019-04-30T14:30:14.119Z,20.33
2019-04-30T14:32:41.483Z,20.02
2019-04-30T14:35:09.149Z,19.80
2019-04-30T14:37:38.875Z,19.74
2019-04-30T14:40:10.255Z,19.60
2019-04-30T14:42:38.082Z,19.45
2019-04-30T14:45:14.964Z,19.29
2019-04-30T14:47:49.511Z,19.21
2019-04-30T14:50:18.632Z,19.15
2019-04-30T14:52:47.350Z,19.21
2019-04-30T14:55:25.558Z,19.56
2019-04-30T14:58:10.944Z,19.71
2019-04-30T15:00:39.994Z,19.67
2019-04-30T15:03:09.476Z,19.81
2019-04-30T15:05:40.515Z,19.69
2019-04-30T15:08:05.461Z,19.58
2019-04-30T15:10:32.640Z,19.45
2019-04-30T15:13:00.235Z,19.24
2019-04-30T15:15:29.222Z,19.20
2019-04-30T15:17:56.203Z,19.07
2019-04-30T15:20:23.814Z,19.03
2019-04-30T15:23:19.038Z,19.02
2019-04-30T15:25:40.170Z,18.87
2019-04-30T15:28:07.139Z,18.88
2019-04-30T15:30:34.092Z,19.00
2019-04-30T15:33:09.399Z,19.13
2019-04-30T15:35:37.720Z,19.20
2019-04-30T15:38:04.813Z,19.19
2019-04-30T15:40:32.105Z,19.11
2019-04-30T15:43:02.422Z,19.08
2019-04-30T15:45:29.415Z,19.16
2019-04-30T15:47:58.431Z,19.29
2019-04-30T15:50:25.349Z,19.28
2019-04-30T15:52:52.231Z,19.24
2019-04-30T15:55:19.070Z,19.21
2019-04-30T15:58:00.093Z,19.31
2019-04-30T16:00:29.255Z,19.40
2019-04-30T16:03:00.152Z,19.55
2019-04-30T16:05:31.957Z,19.57
2019-04-30T16:08:00.739Z,19.54
2019-04-30T16:10:29.735Z,19.46
2019-04-30T16:13:07.161Z,19.24
2019-04-30T16:15:34.739Z,19.01
2019-04-30T16:18:03.184Z,18.88
2019-04-30T16:20:30.222Z,18.87
2019-04-30T16:22:59.086Z,18.79
2019-04-30T16:25:26.182Z,18.62
2019-04-30T16:27:53.332Z,18.41
2019-04-30T16:30:20.411Z,18.18
2019-04-30T16:32:50.516Z,18.00
2019-04-30T16:35:16.373Z,17.90
2019-04-30T16:37:43.396Z,17.85
2019-04-30T16:40:10.685Z,17.85
2019-04-30T16:42:38.988Z,17.76
2019-04-30T16:45:06.232Z,17.68
2019-04-30T16:47:33.371Z,17.61
2019-04-30T16:50:00.306Z,17.53
2019-04-30T16:52:29.287Z,17.51
2019-04-30T16:54:56.224Z,17.53
2019-04-30T16:57:23.240Z,15.34
2019-04-30T16:59:53.370Z,17.71
2019-04-30T17:02:20.771Z,17.83
2019-04-30T17:04:52.206Z,17.88
2019-04-30T17:07:38.725Z,17.78
2019-04-30T17:10:10.624Z,17.66
2019-04-30T17:12:51.550Z,16.44
2019-04-30T17:15:20.634Z,17.58
2019-04-30T17:17:49.659Z,17.50
2019-04-30T17:20:16.417Z,17.41
2019-04-30T17:22:45.189Z,17.30
2019-04-30T17:25:13.185Z,17.18
2019-04-30T17:27:40.209Z,17.03
2019-04-30T17:30:09.122Z,16.95
2019-04-30T17:32:37.137Z,16.92
2019-04-30T17:35:05.926Z,16.91
2019-04-30T17:37:33.105Z,16.86
2019-04-30T17:40:00.175Z,16.84
2019-04-30T17:42:27.565Z,16.79
2019-04-30T17:44:58.708Z,16.71
2019-04-30T17:47:23.261Z,16.63
2019-04-30T17:49:50.854Z,16.53
2019-04-30T17:52:18.838Z,16.46
2019-04-30T17:54:45.671Z,15.20
2019-04-30T17:57:12.833Z,16.27
2019-04-30T17:59:39.566Z,16.18
2019-04-30T18:02:09.658Z,16.09
2019-04-30T18:04:36.951Z,16.03
2019-04-30T18:07:04.141Z,15.96
2019-04-30T18:09:31.088Z,15.88
2019-04-30T18:11:59.529Z,15.79
2019-04-30T18:14:28.535Z,15.72
2019-04-30T18:16:55.634Z,14.41
2019-04-30T18:19:24.425Z,15.57
2019-04-30T18:21:52.989Z,15.50
2019-04-30T18:24:22.125Z,15.44
2019-04-30T18:26:56.981Z,15.38
2019-04-30T18:29:23.754Z,15.31
2019-04-30T18:31:50.862Z,15.25
2019-04-30T18:34:19.464Z,15.20
2019-04-30T18:36:46.498Z,15.13
2019-04-30T18:39:13.654Z,15.09
2019-04-30T18:41:40.635Z,15.04
2019-04-30T18:44:09.511Z,15.00
2019-04-30T18:46:36.627Z,14.92
2019-04-30T18:49:03.699Z,14.86
2019-04-30T18:51:39.049Z,14.76
2019-04-30T18:54:00.071Z,14.66
2019-04-30T18:56:28.994Z,14.61
2019-04-30T18:58:55.944Z,14.55
2019-04-30T19:01:23.441Z,14.48
2019-04-30T19:03:51.513Z,14.42
2019-04-30T19:06:23.749Z,14.37
2019-04-30T19:09:00.898Z,14.34
2019-04-30T19:11:32.789Z,14.28
2019-04-30T19:14:01.438Z,14.20
2019-04-30T19:16:46.752Z,14.15
2019-04-30T19:19:24.637Z,14.07
2019-04-30T19:21:51.695Z,14.02
2019-04-30T19:24:19.751Z,13.97
2019-04-30T19:26:48.677Z,13.91
2019-04-30T19:29:15.677Z,13.86
2019-04-30T19:31:42.942Z,13.79
2019-04-30T19:34:09.843Z,13.72
2019-04-30T19:36:37.666Z,13.61
2019-04-30T19:39:08.660Z,13.54
2019-04-30T19:41:35.527Z,13.46
2019-04-30T19:44:02.762Z,13.42
2019-04-30T19:46:30.112Z,13.34
2019-04-30T19:48:58.589Z,13.28
2019-04-30T19:51:25.819Z,13.24
2019-04-30T19:53:52.551Z,13.18
2019-04-30T19:56:20.531Z,13.15
2019-04-30T19:58:59.267Z,13.10
2019-04-30T20:01:17.213Z,11.82
2019-04-30T20:03:44.195Z,13.05
2019-04-30T20:06:11.434Z,13.01
2019-04-30T20:08:38.784Z,12.97
2019-04-30T20:11:05.773Z,12.95
2019-04-30T20:13:37.038Z,12.93
2019-04-30T20:16:02.094Z,12.91
2019-04-30T20:18:29.305Z,12.83
2019-04-30T20:21:00.876Z,12.81
2019-04-30T20:23:27.045Z,12.76
2019-04-30T20:25:53.987Z,12.73
2019-04-30T20:28:21.564Z,12.73
2019-04-30T20:30:49.044Z,12.71
2019-04-30T20:33:16.113Z,12.67
2019-04-30T20:35:43.209Z,12.65
2019-04-30T20:38:12.375Z,12.61
2019-04-30T20:40:43.569Z,12.57
2019-04-30T20:43:09.645Z,12.54
2019-04-30T20:45:37.100Z,12.50
2019-04-30T20:48:04.087Z,12.47
2019-04-30T20:50:30.964Z,12.45
2019-04-30T20:52:58.874Z,12.41
2019-04-30T20:55:25.918Z,12.37
2019-04-30T20:57:53.775Z,12.33
2019-04-30T21:00:21.615Z,12.32
2019-04-30T21:02:48.654Z,12.30
2019-04-30T21:05:15.699Z,12.29
2019-04-30T21:07:42.963Z,12.27
2019-04-30T21:10:10.209Z,12.24
2019-04-30T21:12:37.175Z,12.25
2019-04-30T21:15:09.705Z,12.22
2019-04-30T21:17:36.730Z,12.21
2019-04-30T21:20:04.367Z,12.20
2019-04-30T21:22:31.642Z,12.18
2019-04-30T21:25:00.600Z,12.16
2019-04-30T21:27:30.413Z,12.13
2019-04-30T21:29:58.978Z,12.11
2019-04-30T21:32:29.033Z,12.11
2019-04-30T21:34:57.867Z,12.10
2019-04-30T21:37:25.575Z,12.08
2019-04-30T21:39:53.498Z,12.05
2019-04-30T21:42:21.734Z,12.03
2019-04-30T21:44:49.517Z,12.00
2019-04-30T21:47:17.258Z,11.98
2019-04-30T21:49:45.459Z,11.96
2019-04-30T21:52:12.840Z,11.91
2019-04-30T21:54:41.522Z,11.88
2019-04-30T21:57:09.693Z,11.85
2019-04-30T21:59:38.831Z,11.85
2019-04-30T22:02:07.790Z,11.82
2019-04-30T22:04:34.622Z,11.81
2019-04-30T22:07:02.057Z,11.79
2019-04-30T22:09:30.416Z,11.77
2019-04-30T22:11:59.194Z,11.77
2019-04-30T22:14:26.142Z,11.74
2019-04-30T22:16:52.916Z,11.72
2019-04-30T22:19:20.506Z,11.71
2019-04-30T22:21:49.463Z,11.71
2019-04-30T22:24:16.325Z,11.68
2019-04-30T22:26:43.293Z,11.67
2019-04-30T22:29:10.643Z,11.64
2019-04-30T22:31:39.471Z,11.64
2019-04-30T22:34:08.852Z,11.64
2019-04-30T22:36:38.776Z,11.63
2019-04-30T22:39:12.011Z,11.61
2019-04-30T22:41:39.812Z,11.61
2019-04-30T22:44:06.734Z,11.59
2019-04-30T22:46:33.717Z,11.55
2019-04-30T22:49:00.471Z,11.54
2019-04-30T22:51:27.658Z,11.53
2019-04-30T22:53:54.681Z,11.49
2019-04-30T22:56:21.569Z,11.48
2019-04-30T22:58:49.517Z,11.45
2019-04-30T23:01:34.577Z,11.40
2019-04-30T23:04:03.814Z,11.34
2019-04-30T23:06:31.661Z,11.32
2019-04-30T23:08:58.497Z,11.25
2019-04-30T23:11:26.445Z,11.19
2019-04-30T23:13:54.245Z,11.13
2019-04-30T23:16:21.800Z,11.10
2019-04-30T23:18:48.843Z,11.08
2019-04-30T23:21:15.697Z,11.01
2019-04-30T23:23:43.130Z,10.96
2019-04-30T23:26:09.888Z,10.88
2019-04-30T23:28:37.929Z,10.84
2019-04-30T23:31:04.792Z,10.81
2019-04-30T23:33:31.680Z,10.77
2019-04-30T23:35:59.694Z,10.73
2019-04-30T23:38:27.259Z,10.69
2019-04-30T23:40:55.129Z,10.68
2019-04-30T23:43:23.056Z,10.64
2019-04-30T23:45:49.797Z,10.62
2019-04-30T23:48:17.386Z,10.58
2019-04-30T23:50:45.123Z,10.55
2019-04-30T23:53:13.132Z,10.51
2019-04-30T23:55:40.784Z,10.49
2019-04-30T23:58:08.454Z,10.47
